Time;durP1;ratioP1;P1;durP2;ratioP2;P2;SDS_P1;SDS_P2;PMS_P1;PMS_P2;Temp;Humidity;BMP_temperature;BMP_pressure;BME280_temperature;BME280_humidity;BME280_pressure;Samples;Min_cycle;Max_cycle;Signal;HPM_P1;HPM_P2
2023/08/07 00:00:47;;;;;;;3.50;2.13;;;14.10;99.90;;;;;;5053757;28;20063;-26
2023/08/07 00:03:18;;;;;;;6.05;2.70;;;14.00;99.90;;;;;;5020830;28;20049;-26
2023/08/07 00:05:47;;;;;;;5.90;2.60;;;13.90;99.90;;;;;;5038068;28;20187;-26
2023/08/07 00:08:13;;;;;;;4.40;2.38;;;13.70;99.90;;;;;;5051548;28;20052;-26
2023/08/07 00:10:39;;;;;;;3.97;2.60;;;13.70;99.90;;;;;;5053812;28;20053;-25
2023/08/07 00:13:05;;;;;;;5.45;2.85;;;13.60;99.90;;;;;;5055285;28;20084;-26
2023/08/07 00:15:33;;;;;;;4.63;2.85;;;13.50;99.90;;;;;;5054648;28;20088;-26
2023/08/07 00:17:59;;;;;;;9.13;3.22;;;13.50;99.90;;;;;;5053214;28;20102;-26
2023/08/07 00:20:25;;;;;;;4.80;3.13;;;13.40;99.90;;;;;;5054554;28;20080;-26
2023/08/07 00:22:54;;;;;;;6.00;2.90;;;13.40;99.90;;;;;;5045738;28;20073;-25
2023/08/07 00:25:19;;;;;;;11.00;3.53;;;13.30;99.90;;;;;;5001736;28;20050;-25
2023/08/07 00:27:45;;;;;;;9.88;3.90;;;13.30;99.90;;;;;;5041387;28;20045;-25
2023/08/07 00:30:11;;;;;;;14.45;3.45;;;13.20;99.90;;;;;;5054633;28;20200;-25
2023/08/07 00:32:42;;;;;;;6.25;3.78;;;13.30;99.90;;;;;;5053446;28;20052;-25
2023/08/07 00:35:08;;;;;;;3.58;2.70;;;13.20;99.90;;;;;;5053187;28;20041;-25
2023/08/07 00:37:34;;;;;;;4.78;2.75;;;13.10;99.90;;;;;;5049308;28;20049;-25
2023/08/07 00:39:59;;;;;;;4.82;2.60;;;13.10;99.90;;;;;;5033950;28;20052;-25
2023/08/07 00:42:25;;;;;;;5.28;2.45;;;12.90;99.90;;;;;;5034511;28;20042;-25
2023/08/07 00:44:51;;;;;;;4.40;2.00;;;12.80;99.90;;;;;;5034124;28;20128;-25
2023/08/07 00:47:16;;;;;;;5.68;2.80;;;12.70;99.90;;;;;;5034993;28;20052;-25
2023/08/07 00:49:43;;;;;;;6.55;2.38;;;12.60;99.90;;;;;;5034403;28;20530;-25
2023/08/07 00:52:09;;;;;;;7.03;2.72;;;12.50;99.90;;;;;;5034074;28;20128;-25
2023/08/07 00:54:35;;;;;;;8.20;2.88;;;12.50;99.90;;;;;;5034550;28;20081;-25
2023/08/07 00:57:10;;;;;;;5.28;2.92;;;12.50;99.90;;;;;;5033690;28;20100;-25
2023/08/07 00:59:36;;;;;;;4.43;2.78;;;12.50;99.90;;;;;;5044304;28;20041;-25
2023/08/07 01:02:02;;;;;;;3.65;2.80;;;12.40;99.90;;;;;;5053445;28;20075;-25
2023/08/07 01:04:28;;;;;;;7.70;3.03;;;12.50;99.90;;;;;;5036100;28;20487;-25
2023/08/07 01:06:54;;;;;;;4.38;3.22;;;12.50;99.90;;;;;;5053994;28;20495;-25
2023/08/07 01:09:20;;;;;;;5.32;2.92;;;12.50;99.90;;;;;;5048052;28;20104;-25
2023/08/07 01:11:53;;;;;;;7.88;3.97;;;12.50;99.90;;;;;;5032358;28;20060;-25
2023/08/07 01:14:33;;;;;;;6.38;3.45;;;12.40;99.90;;;;;;5032869;28;20041;-25
2023/08/07 01:17:03;;;;;;;6.30;3.83;;;12.40;99.90;;;;;;5033627;28;20046;-25
2023/08/07 01:19:30;;;;;;;6.22;3.78;;;12.30;99.90;;;;;;5033225;28;20061;-23
2023/08/07 01:22:06;;;;;;;6.88;4.03;;;12.30;99.90;;;;;;5050623;28;20080;-25
2023/08/07 01:24:33;;;;;;;12.43;4.97;;;12.30;99.90;;;;;;5042936;28;20045;-25
2023/08/07 01:27:17;;;;;;;12.98;4.28;;;12.30;99.90;;;;;;5053588;28;20053;-25
2023/08/07 01:30:22;;;;;;;9.32;4.32;;;12.30;99.90;;;;;;5053852;28;20045;-25
2023/08/07 01:33:09;;;;;;;8.00;4.38;;;12.10;99.90;;;;;;5034162;28;20083;-25
2023/08/07 01:35:40;;;;;;;10.90;5.05;;;12.10;99.90;;;;;;5033230;28;20045;-25
2023/08/07 01:38:07;;;;;;;12.20;5.15;;;12.00;99.90;;;;;;5034343;28;20053;-27
2023/08/07 01:40:34;;;;;;;9.10;4.35;;;11.90;99.90;;;;;;5033511;28;20052;-25
2023/08/07 01:43:00;;;;;;;8.57;4.50;;;11.90;99.90;;;;;;5033088;28;20053;-22
2023/08/07 01:45:28;;;;;;;8.48;4.32;;;11.90;99.90;;;;;;5033954;28;20107;-25
2023/08/07 01:47:54;;;;;;;5.82;3.80;;;11.90;99.90;;;;;;5033467;28;20131;-26
2023/08/07 01:50:20;;;;;;;9.90;3.97;;;11.90;99.90;;;;;;5031972;28;20054;-25
2023/08/07 01:52:49;;;;;;;10.85;3.35;;;11.80;99.90;;;;;;5034263;28;20050;-26
2023/08/07 01:55:18;;;;;;;10.02;3.38;;;11.70;99.90;;;;;;5045038;28;20465;-25
2023/08/07 01:57:43;;;;;;;8.15;3.42;;;11.70;99.90;;;;;;5052043;28;20056;-23
2023/08/07 02:00:10;;;;;;;10.50;3.28;;;11.70;99.90;;;;;;5033423;28;20049;-25
2023/08/07 02:02:37;;;;;;;8.85;3.00;;;11.80;99.90;;;;;;5033632;28;20041;-25
2023/08/07 02:05:04;;;;;;;15.70;3.75;;;11.80;99.90;;;;;;5037109;28;20048;-25
2023/08/07 02:07:30;;;;;;;9.88;2.90;;;11.80;99.90;;;;;;5053210;28;20079;-25
2023/08/07 02:09:57;;;;;;;11.45;3.55;;;11.70;99.90;;;;;;5053188;28;20053;-25
2023/08/07 02:12:22;;;;;;;9.82;3.30;;;11.70;99.90;;;;;;5052790;28;20495;-25
2023/08/07 02:14:48;;;;;;;21.52;4.07;;;11.70;99.90;;;;;;5052101;28;20048;-23
2023/08/07 02:17:14;;;;;;;9.63;2.95;;;11.80;99.90;;;;;;5034281;28;20463;-25
2023/08/07 02:19:40;;;;;;;11.77;2.88;;;11.90;99.90;;;;;;5033153;28;20080;-25
2023/08/07 02:22:05;;;;;;;13.85;3.25;;;12.00;99.90;;;;;;5033432;28;20053;-25
2023/08/07 02:24:31;;;;;;;12.63;3.00;;;12.00;99.90;;;;;;5015606;28;20115;-25
2023/08/07 02:26:57;;;;;;;10.00;2.78;;;12.00;99.90;;;;;;5031403;28;20080;-25
2023/08/07 02:29:23;;;;;;;12.82;3.45;;;12.10;99.90;;;;;;5032394;28;20045;-25
2023/08/07 02:31:48;;;;;;;10.88;3.45;;;12.30;99.90;;;;;;5036002;28;20041;-25
2023/08/07 02:34:14;;;;;;;13.85;3.33;;;12.50;99.90;;;;;;5037210;28;20045;-24
2023/08/07 02:36:40;;;;;;;17.05;4.70;;;12.60;99.90;;;;;;5055720;28;20501;-21
2023/08/07 02:39:06;;;;;;;21.02;6.20;;;12.90;99.90;;;;;;5055015;28;20049;-21
2023/08/07 02:41:32;;;;;;;20.63;5.70;;;13.60;99.90;;;;;;5055166;28;20060;-21
2023/08/07 02:43:58;;;;;;;14.48;4.93;;;13.30;99.90;;;;;;5056389;28;20037;-21
2023/08/07 02:46:24;;;;;;;13.40;5.88;;;13.30;99.90;;;;;;5040713;28;20543;-21
2023/08/07 02:48:49;;;;;;;13.63;4.72;;;13.50;99.90;;;;;;5036394;28;20057;-21
2023/08/07 02:51:15;;;;;;;11.93;4.00;;;13.80;99.90;;;;;;5018669;28;20078;-21
2023/08/07 02:53:41;;;;;;;12.60;4.50;;;13.40;99.90;;;;;;5035979;28;20098;-21
2023/08/07 02:56:07;;;;;;;11.88;4.05;;;13.90;99.90;;;;;;5042023;28;20052;-21
2023/08/07 02:58:32;;;;;;;10.68;4.63;;;13.90;99.90;;;;;;5056181;28;20119;-21
2023/08/07 03:01:04;;;;;;;14.85;4.45;;;13.40;99.90;;;;;;5056342;28;20399;-21
2023/08/07 03:03:30;;;;;;;6.80;3.50;;;13.50;99.90;;;;;;5056476;28;20499;-22
2023/08/07 03:05:56;;;;;;;8.57;3.28;;;13.50;99.90;;;;;;5054682;28;20749;-21
2023/08/07 03:08:22;;;;;;;8.65;3.38;;;13.50;99.90;;;;;;5055488;28;20055;-21
2023/08/07 03:10:55;;;;;;;7.35;2.78;;;13.50;99.90;;;;;;5054747;28;20127;-21
2023/08/07 03:13:22;;;;;;;9.00;2.40;;;13.80;99.90;;;;;;5054623;28;20079;-22
2023/08/07 03:15:49;;;;;;;11.02;2.17;;;13.80;99.90;;;;;;5055872;28;20052;-21
2023/08/07 03:18:18;;;;;;;12.00;2.95;;;13.80;99.90;;;;;;5052395;28;20036;-21
2023/08/07 03:20:45;;;;;;;12.80;2.95;;;14.20;99.90;;;;;;5054595;28;20049;-22
2023/08/07 03:23:11;;;;;;;15.30;2.88;;;14.40;99.90;;;;;;5055407;28;20491;-22
2023/08/07 03:25:36;;;;;;;11.73;2.60;;;14.20;99.90;;;;;;5056133;28;20041;-22
2023/08/07 03:28:03;;;;;;;8.73;2.50;;;13.90;99.90;;;;;;5054093;28;20445;-23
2023/08/07 03:30:29;;;;;;;7.65;2.20;;;14.30;99.90;;;;;;5055569;28;20131;-23
2023/08/07 03:32:54;;;;;;;13.45;2.78;;;14.30;99.90;;;;;;5056272;28;20147;-23
2023/08/07 03:35:20;;;;;;;11.55;3.25;;;14.60;99.90;;;;;;5054337;28;20524;-25
2023/08/07 03:37:46;;;;;;;12.70;3.25;;;13.80;99.90;;;;;;5054435;28;20049;-26
2023/08/07 03:40:11;;;;;;;16.85;3.70;;;15.10;99.90;;;;;;5055935;28;20498;-26
2023/08/07 03:42:37;;;;;;;16.08;4.38;;;13.80;99.90;;;;;;5054254;28;20537;-27
2023/08/07 03:45:03;;;;;;;13.02;4.50;;;13.80;99.90;;;;;;5055258;28;20045;-26
2023/08/07 03:47:29;;;;;;;17.58;5.13;;;13.80;99.90;;;;;;5055256;28;20103;-28
2023/08/07 03:49:54;;;;;;;17.30;4.78;;;14.90;99.90;;;;;;5053407;28;20040;-27
2023/08/07 03:52:20;;;;;;;20.70;4.57;;;13.30;99.90;;;;;;5055180;28;20049;-26
2023/08/07 03:54:46;;;;;;;18.00;4.38;;;13.50;99.90;;;;;;5055101;28;20110;-26
2023/08/07 03:57:12;;;;;;;20.05;3.78;;;14.80;99.90;;;;;;5053869;28;20136;-27
2023/08/07 03:59:37;;;;;;;18.98;4.03;;;14.70;99.90;;;;;;5051405;28;20055;-26
2023/08/07 04:02:03;;;;;;;16.70;4.43;;;13.90;99.90;;;;;;5054538;28;20092;-26
2023/08/07 04:04:29;;;;;;;22.23;4.50;;;13.50;99.90;;;;;;5055462;28;20049;-27
2023/08/07 04:06:55;;;;;;;29.55;5.20;;;13.70;99.90;;;;;;5054895;28;20149;-27
2023/08/07 04:09:20;;;;;;;16.52;3.88;;;14.20;99.90;;;;;;5052025;28;20491;-27
2023/08/07 04:11:46;;;;;;;15.13;3.78;;;14.00;99.90;;;;;;5053820;28;20506;-26
2023/08/07 04:14:12;;;;;;;17.60;4.38;;;13.90;99.90;;;;;;5036873;28;20048;-26
2023/08/07 04:16:37;;;;;;;16.73;4.07;;;13.70;99.90;;;;;;5054652;28;20064;-27
2023/08/07 04:19:04;;;;;;;18.00;3.55;;;13.70;99.90;;;;;;5054888;28;20099;-26
2023/08/07 04:21:32;;;;;;;20.05;3.63;;;13.60;99.90;;;;;;5052828;28;20099;-26
2023/08/07 04:23:59;;;;;;;15.60;3.28;;;14.00;99.90;;;;;;5054286;28;20084;-27
2023/08/07 04:26:26;;;;;;;17.23;3.97;;;14.10;99.90;;;;;;5054478;28;20060;-27
2023/08/07 04:28:51;;;;;;;16.05;3.75;;;13.80;99.90;;;;;;5054450;28;20045;-27
2023/08/07 04:31:17;;;;;;;17.02;4.22;;;14.00;99.90;;;;;;5035702;28;20091;-26
2023/08/07 04:33:43;;;;;;;14.65;3.78;;;14.00;99.90;;;;;;5053058;28;20053;-28
2023/08/07 04:36:09;;;;;;;11.07;2.97;;;13.90;99.90;;;;;;5054317;28;20110;-32
2023/08/07 04:38:34;;;;;;;11.15;3.67;;;14.70;99.90;;;;;;5054257;28;20048;-40
2023/08/07 04:41:00;;;;;;;19.35;3.90;;;14.10;99.90;;;;;;5033791;28;20103;-41
2023/08/07 04:43:27;;;;;;;15.85;3.88;;;13.50;99.90;;;;;;5034303;28;20068;-43
2023/08/07 04:45:53;;;;;;;17.15;5.00;;;13.20;99.90;;;;;;5034240;28;20057;-44
2023/08/07 04:48:20;;;;;;;15.93;4.45;;;15.00;99.90;;;;;;5033502;28;20045;-42
2023/08/07 04:50:46;;;;;;;19.58;4.43;;;15.00;99.90;;;;;;5049248;28;20123;-43
2023/08/07 04:53:12;;;;;;;18.52;5.22;;;14.80;99.90;;;;;;5033641;28;20084;-43
2023/08/07 04:55:38;;;;;;;18.05;4.18;;;14.80;99.90;;;;;;5033109;28;20044;-42
2023/08/07 04:58:04;;;;;;;16.00;3.90;;;14.60;99.90;;;;;;5034025;28;20049;-43
2023/08/07 05:00:30;;;;;;;16.63;3.95;;;13.50;99.90;;;;;;5034059;28;20179;-42
2023/08/07 05:02:56;;;;;;;18.48;4.47;;;14.50;99.90;;;;;;5033335;28;20051;-43
2023/08/07 05:05:21;;;;;;;19.27;3.78;;;14.40;99.90;;;;;;5034381;28;20057;-41
2023/08/07 05:07:48;;;;;;;12.60;3.85;;;13.60;99.90;;;;;;5033930;28;20060;-42
2023/08/07 05:10:13;;;;;;;16.70;3.65;;;13.40;99.90;;;;;;5032692;28;20053;-42
2023/08/07 05:12:39;;;;;;;23.10;4.78;;;14.20;99.90;;;;;;5018469;28;20049;-41
2023/08/07 05:15:05;;;;;;;16.20;3.50;;;14.20;99.90;;;;;;5053042;28;20044;-42
2023/08/07 05:17:32;;;;;;;18.23;4.45;;;14.30;99.90;;;;;;5019543;28;20049;-40
2023/08/07 05:19:58;;;;;;;25.35;5.53;;;14.30;99.90;;;;;;5053619;28;20056;-41
2023/08/07 05:22:23;;;;;;;29.42;5.95;;;13.60;99.90;;;;;;5053321;28;20045;-41
2023/08/07 05:24:50;;;;;;;15.95;4.32;;;13.80;99.90;;;;;;5051732;28;20068;-41
2023/08/07 05:27:16;;;;;;;12.70;4.25;;;13.90;99.90;;;;;;5054174;28;20106;-40
2023/08/07 05:29:45;;;;;;;16.60;4.53;;;14.40;99.90;;;;;;5052615;28;20044;-40
2023/08/07 05:32:12;;;;;;;11.30;2.80;;;14.40;99.90;;;;;;5053405;28;20049;-41
2023/08/07 05:34:38;;;;;;;13.85;3.33;;;14.40;99.90;;;;;;5051598;28;20479;-40
2023/08/07 05:37:04;;;;;;;11.88;3.35;;;14.50;99.90;;;;;;5038535;28;20176;-37
2023/08/07 05:39:29;;;;;;;10.18;3.30;;;14.50;99.90;;;;;;5032859;28;20060;-39
2023/08/07 05:41:57;;;;;;;8.75;2.13;;;14.60;99.90;;;;;;5032361;28;20046;-37
2023/08/07 05:44:23;;;;;;;8.25;2.67;;;14.40;99.90;;;;;;5016012;28;20087;-38
2023/08/07 05:46:49;;;;;;;10.25;2.80;;;14.10;99.90;;;;;;5033503;28;20376;-34
2023/08/07 05:49:16;;;;;;;11.95;2.80;;;14.10;99.90;;;;;;5033459;28;20053;-35
2023/08/07 05:51:41;;;;;;;12.95;3.15;;;14.20;99.90;;;;;;5033489;28;20076;-36
2023/08/07 05:54:07;;;;;;;16.90;3.42;;;14.00;99.90;;;;;;5033676;28;20467;-33
2023/08/07 05:56:33;;;;;;;17.85;3.83;;;14.30;99.90;;;;;;5048464;28;20045;-33
2023/08/07 05:58:59;;;;;;;12.85;2.88;;;14.40;99.90;;;;;;5053296;28;20479;-33
2023/08/07 06:01:30;;;;;;;9.73;2.58;;;14.30;99.90;;;;;;5054107;28;20508;-32
2023/08/07 06:03:57;;;;;;;12.40;3.10;;;14.50;99.90;;;;;;5053910;28;20057;-34
2023/08/07 06:06:23;;;;;;;12.43;3.08;;;14.80;99.90;;;;;;5042900;28;20045;-31
2023/08/07 06:08:48;;;;;;;10.82;2.65;;;14.80;99.90;;;;;;5037725;28;20383;-32
2023/08/07 06:11:14;;;;;;;9.43;2.60;;;14.80;99.90;;;;;;5037575;28;20045;-32
2023/08/07 06:13:40;;;;;;;16.23;3.90;;;14.80;99.90;;;;;;5040170;28;20063;-32
2023/08/07 06:16:06;;;;;;;9.10;3.35;;;14.90;99.90;;;;;;5043458;28;20078;-31
2023/08/07 06:18:32;;;;;;;9.85;2.08;;;15.10;99.90;;;;;;5048615;28;20787;-31
2023/08/07 06:20:58;;;;;;;6.93;1.80;;;15.20;99.90;;;;;;5060755;28;20107;-32
2023/08/07 06:23:24;;;;;;;11.02;2.80;;;15.30;99.90;;;;;;5062375;28;20143;-31
2023/08/07 06:25:50;;;;;;;13.52;2.53;;;15.30;99.90;;;;;;5067251;28;20439;-33
2023/08/07 06:28:15;;;;;;;12.10;2.50;;;15.10;99.90;;;;;;5075775;28;20051;-32
2023/08/07 06:30:41;;;;;;;11.27;2.33;;;14.90;99.90;;;;;;5076977;28;20382;-32
2023/08/07 06:33:07;;;;;;;11.82;2.78;;;14.80;99.90;;;;;;5042134;28;20044;-31
2023/08/07 06:35:38;;;;;;;9.55;2.40;;;14.70;99.90;;;;;;5074868;28;20044;-31
2023/08/07 06:38:04;;;;;;;13.52;2.72;;;14.60;99.90;;;;;;5056471;28;20178;-29
2023/08/07 06:40:30;;;;;;;11.73;2.75;;;14.50;99.90;;;;;;5055475;28;20127;-29
2023/08/07 06:42:55;;;;;;;10.07;2.30;;;14.60;99.90;;;;;;5056518;28;20368;-29
2023/08/07 06:45:21;;;;;;;16.30;3.42;;;14.70;99.90;;;;;;5038536;28;20041;-29
2023/08/07 06:47:47;;;;;;;13.00;3.28;;;14.90;99.90;;;;;;5055188;28;20110;-29
2023/08/07 06:50:14;;;;;;;9.88;2.75;;;14.80;99.90;;;;;;5038615;28;20044;-29
2023/08/07 06:52:40;;;;;;;18.13;2.67;;;14.80;99.90;;;;;;5038724;28;20053;-30
2023/08/07 06:55:06;;;;;;;12.32;2.45;;;14.50;99.90;;;;;;5038552;28;20045;-29
2023/08/07 06:57:32;;;;;;;17.00;3.22;;;14.20;99.90;;;;;;5042586;28;20092;-28
2023/08/07 06:59:58;;;;;;;10.85;2.55;;;13.90;99.90;;;;;;5036868;28;20099;-28
2023/08/07 07:02:23;;;;;;;12.90;2.50;;;14.00;99.90;;;;;;5035053;28;20045;-29
2023/08/07 07:04:49;;;;;;;6.63;1.95;;;13.90;99.90;;;;;;5036259;28;20068;-28
2023/08/07 07:07:15;;;;;;;10.63;1.75;;;13.80;99.90;;;;;;5049017;28;20057;-28
2023/08/07 07:09:41;;;;;;;7.30;2.50;;;13.90;99.90;;;;;;5055146;28;20049;-28
2023/08/07 07:12:07;;;;;;;7.47;1.90;;;14.00;99.90;;;;;;5055636;28;20135;-28
2023/08/07 07:14:36;;;;;;;18.73;4.40;;;14.20;99.90;;;;;;5055885;28;20053;-33
2023/08/07 07:17:01;;;;;;;9.60;2.97;;;14.20;99.90;;;;;;5046669;28;20049;-34
2023/08/07 07:19:27;;;;;;;14.32;2.92;;;13.20;99.90;;;;;;5035450;28;20053;-41
2023/08/07 07:21:53;;;;;;;15.18;3.78;;;13.00;99.90;;;;;;5035906;28;20050;-42
2023/08/07 07:24:19;;;;;;;14.88;3.20;;;12.90;99.90;;;;;;5036585;28;20082;-43
2023/08/07 07:26:44;;;;;;;17.27;3.67;;;13.30;99.90;;;;;;5019601;28;20056;-43
2023/08/07 07:29:10;;;;;;;16.42;3.53;;;13.50;99.90;;;;;;5034230;28;20042;-43
2023/08/07 07:31:36;;;;;;;12.20;3.10;;;13.50;99.90;;;;;;5051092;28;20123;-44
2023/08/07 07:34:02;;;;;;;9.45;2.80;;;14.10;99.90;;;;;;5034265;28;20490;-42
2023/08/07 07:36:28;;;;;;;13.13;3.00;;;14.40;99.90;;;;;;5035481;28;20049;-42
2023/08/07 07:38:54;;;;;;;7.55;2.40;;;14.60;99.90;;;;;;5046504;28;20111;-41
2023/08/07 07:41:23;;;;;;;10.23;2.63;;;14.60;99.90;;;;;;5035725;28;20053;-38
2023/08/07 07:43:49;;;;;;;12.13;2.75;;;14.80;99.90;;;;;;5034066;28;20052;-40
2023/08/07 07:46:14;;;;;;;12.65;2.13;;;14.70;99.90;;;;;;5036831;28;20128;-41
2023/08/07 07:48:40;;;;;;;7.88;2.28;;;14.30;99.90;;;;;;5018574;28;20068;-40
2023/08/07 07:51:06;;;;;;;15.10;3.88;;;13.90;99.90;;;;;;5017879;28;20049;-33
2023/08/07 07:53:32;;;;;;;12.60;2.80;;;13.40;99.90;;;;;;5034276;28;20125;-31
2023/08/07 07:55:57;;;;;;;9.60;2.15;;;13.20;99.90;;;;;;5032788;28;20123;-33
2023/08/07 07:58:23;;;;;;;13.75;3.30;;;13.00;99.90;;;;;;5053928;28;20056;-36
2023/08/07 08:00:52;;;;;;;11.32;2.90;;;12.70;99.90;;;;;;5037564;28;20116;-37
2023/08/07 08:03:17;;;;;;;12.55;3.67;;;12.80;99.90;;;;;;5055251;28;20398;-38
2023/08/07 08:05:43;;;;;;;13.00;3.67;;;13.00;99.90;;;;;;5053605;28;20041;-36
2023/08/07 08:08:09;;;;;;;10.13;3.05;;;13.30;99.90;;;;;;5023591;28;20052;-39
2023/08/07 08:10:35;;;;;;;10.23;3.95;;;13.30;99.90;;;;;;5033697;28;20076;-39
2023/08/07 08:13:01;;;;;;;8.90;3.53;;;13.40;99.90;;;;;;5051280;28;20080;-39
2023/08/07 08:15:27;;;;;;;13.85;3.67;;;13.50;99.90;;;;;;5056964;28;20048;-41
2023/08/07 08:17:53;;;;;;;16.55;4.30;;;14.10;99.90;;;;;;5041723;28;20044;-37
2023/08/07 08:20:19;;;;;;;11.63;3.38;;;14.40;99.90;;;;;;5022085;28;20058;-38
2023/08/07 08:22:45;;;;;;;15.73;3.92;;;14.40;99.90;;;;;;5034417;28;20518;-36
2023/08/07 08:25:11;;;;;;;7.63;2.72;;;14.60;99.90;;;;;;5034914;28;20038;-33
2023/08/07 08:27:40;;;;;;;8.15;2.50;;;15.00;99.90;;;;;;5034559;28;20049;-34
2023/08/07 08:30:07;;;;;;;11.85;3.30;;;15.10;99.90;;;;;;5036856;28;20041;-39
2023/08/07 08:32:33;;;;;;;10.35;2.65;;;15.10;99.90;;;;;;5050263;28;20049;-41
2023/08/07 08:34:59;;;;;;;8.52;2.70;;;15.20;1.00;;;;;;5054918;28;20045;-38
2023/08/07 08:37:25;;;;;;;6.35;2.03;;;15.40;8.20;;;;;;5054307;28;20071;-37
2023/08/07 08:39:51;;;;;;;10.18;1.88;;;15.50;1.00;;;;;;5054278;28;20045;-33
2023/08/07 08:42:19;;;;;;;7.15;2.03;;;15.60;99.90;;;;;;5051458;28;20045;-32
2023/08/07 08:44:56;;;;;;;6.22;2.45;;;15.70;99.90;;;;;;5034206;28;20050;-32
2023/08/07 08:47:23;;;;;;;15.77;2.85;;;15.90;1.00;;;;;;5033592;28;20103;-32
2023/08/07 08:50:11;;;;;;;9.27;2.45;;;15.80;99.90;;;;;;5034448;28;20049;-31
2023/08/07 08:52:41;;;;;;;7.65;2.08;;;15.90;1.00;;;;;;5035573;28;20053;-30
2023/08/07 08:55:09;;;;;;;8.50;2.08;;;16.00;99.90;;;;;;5053926;28;20055;-29
2023/08/07 08:57:36;;;;;;;12.82;2.95;;;16.00;1.00;;;;;;5053637;28;20057;-30
2023/08/07 09:00:07;;;;;;;9.55;2.20;;;15.90;99.90;;;;;;5052666;28;20057;-30
2023/08/07 09:02:33;;;;;;;11.45;2.08;;;16.00;42.50;;;;;;5054218;28;20063;-29
2023/08/07 09:04:59;;;;;;;12.75;2.83;;;16.20;1.00;;;;;;5045880;28;20053;-28
2023/08/07 09:07:26;;;;;;;8.23;1.80;;;16.40;1.00;;;;;;5034717;28;20391;-27
2023/08/07 09:09:53;;;;;;;6.78;1.60;;;17.10;1.00;;;;;;5042969;28;20049;-27
2023/08/07 09:12:28;;;;;;;8.68;1.58;;;17.30;1.00;;;;;;5051753;28;20045;-27
2023/08/07 09:14:56;;;;;;;8.95;2.20;;;17.50;68.90;;;;;;5053811;28;20037;-26
2023/08/07 09:17:29;;;;;;;5.50;1.65;;;17.30;54.70;;;;;;5053731;28;20124;-27
2023/08/07 09:19:55;;;;;;;9.82;1.70;;;17.40;99.90;;;;;;5051774;28;20045;-27
2023/08/07 09:22:21;;;;;;;10.80;2.97;;;17.60;23.80;;;;;;5034346;28;20081;-26
2023/08/07 09:24:47;;;;;;;10.13;1.73;;;17.50;99.90;;;;;;5034392;28;20107;-26
2023/08/07 09:27:13;;;;;;;7.40;2.05;;;17.80;94.90;;;;;;5044641;28;20530;-26
2023/08/07 09:29:48;;;;;;;7.05;2.10;;;17.80;1.00;;;;;;5016033;28;20504;-26
2023/08/07 09:32:14;;;;;;;6.28;2.05;;;17.40;1.00;;;;;;5051284;28;20041;-25
2023/08/07 09:34:40;;;;;;;7.75;1.85;;;17.50;99.90;;;;;;5053780;28;20111;-26
2023/08/07 09:37:08;;;;;;;9.75;1.88;;;17.80;41.40;;;;;;5053519;28;20044;-26
2023/08/07 09:39:35;;;;;;;7.90;1.85;;;17.70;1.00;;;;;;5052283;28;20045;-25
2023/08/07 09:42:02;;;;;;;7.00;2.00;;;18.00;99.90;;;;;;5048904;28;20472;-25
2023/08/07 09:44:36;;;;;;;9.63;2.67;;;17.50;1.00;;;;;;5052750;28;20052;-25
2023/08/07 09:47:15;;;;;;;7.15;1.67;;;16.70;1.00;;;;;;5005549;28;20107;-24
2023/08/07 09:49:41;;;;;;;6.63;1.85;;;16.40;99.90;;;;;;5054083;28;20403;-24
2023/08/07 09:52:08;;;;;;;10.38;2.35;;;16.10;99.90;;;;;;5037541;28;20061;-26
2023/08/07 09:54:35;;;;;;;10.00;1.80;;;16.10;1.00;;;;;;5036227;28;20124;-24
2023/08/07 09:57:05;;;;;;;9.85;2.30;;;16.10;99.90;;;;;;5037391;28;20128;-24
2023/08/07 09:59:32;;;;;;;8.85;2.38;;;16.00;1.00;;;;;;5037611;28;20494;-24
2023/08/07 10:02:05;;;;;;;9.30;1.83;;;16.00;99.90;;;;;;5052904;28;20041;-24
2023/08/07 10:04:31;;;;;;;10.90;2.67;;;16.10;1.00;;;;;;5044852;28;20048;-24
2023/08/07 10:06:57;;;;;;;7.95;2.10;;;16.10;1.00;;;;;;5056244;28;20053;-24
2023/08/07 10:09:24;;;;;;;11.27;2.40;;;16.20;99.90;;;;;;5055969;28;20414;-24
2023/08/07 10:11:50;;;;;;;13.73;2.42;;;16.30;99.90;;;;;;5055265;28;20041;-24
2023/08/07 10:14:16;;;;;;;10.32;2.35;;;16.30;99.90;;;;;;5057075;28;20045;-24
2023/08/07 10:16:42;;;;;;;23.75;2.05;;;16.30;99.90;;;;;;5054658;28;20056;-24
2023/08/07 10:19:09;;;;;;;12.90;3.47;;;16.50;99.90;;;;;;5054783;28;20053;-24
2023/08/07 10:21:36;;;;;;;11.00;2.97;;;16.80;99.90;;;;;;5056720;28;20049;-24
2023/08/07 10:24:04;;;;;;;5.47;1.80;;;16.50;1.00;;;;;;5049326;28;20045;-24
2023/08/07 10:26:34;;;;;;;7.95;2.33;;;16.30;99.90;;;;;;5056848;28;20471;-24
2023/08/07 10:29:02;;;;;;;9.95;2.55;;;16.90;1.00;;;;;;5056821;28;20049;-24
2023/08/07 10:31:30;;;;;;;12.27;2.95;;;17.50;99.90;;;;;;5039360;28;20111;-24
2023/08/07 10:33:55;;;;;;;12.75;2.78;;;17.70;1.00;;;;;;5056614;28;20090;-24
2023/08/07 10:36:21;;;;;;;9.57;2.33;;;17.70;99.90;;;;;;5054405;28;20437;-24
2023/08/07 10:38:53;;;;;;;6.70;1.80;;;17.30;1.00;;;;;;5045383;28;20080;-23
2023/08/07 10:41:19;;;;;;;4.80;1.50;;;17.30;99.90;;;;;;5053066;28;20045;-24
2023/08/07 10:43:47;;;;;;;7.47;1.75;;;17.50;1.00;;;;;;5036141;28;20612;-23
2023/08/07 10:46:20;;;;;;;5.35;1.23;;;17.70;69.70;;;;;;5050262;28;20199;-23
2023/08/07 10:48:47;;;;;;;;;;;17.90;1.00;;;;;;5057421;28;20049;-24
2023/08/07 10:51:17;;;;;;;5.82;1.40;;;17.70;51.30;;;;;;5056003;28;20325;-24
2023/08/07 10:53:45;;;;;;;6.47;1.98;;;17.80;47.50;;;;;;5056305;28;20045;-23
2023/08/07 10:56:15;;;;;;;7.65;1.70;;;17.30;99.90;;;;;;5053827;28;20116;-23
2023/08/07 10:58:41;;;;;;;6.82;1.38;;;16.90;99.90;;;;;;5055009;28;20051;-22
2023/08/07 11:01:27;;;;;;;10.75;1.50;;;16.70;1.00;;;;;;5054881;28;20049;-23
2023/08/07 11:03:55;;;;;;;9.68;1.98;;;16.80;1.00;;;;;;5055855;28;20060;-23
2023/08/07 11:06:34;;;;;;;8.77;1.73;;;17.40;1.00;;;;;;5053537;28;20061;-23
2023/08/07 11:09:03;;;;;;;7.72;1.73;;;17.30;99.90;;;;;;5043980;28;20041;-23
2023/08/07 11:11:30;;;;;;;11.45;2.90;;;16.80;99.90;;;;;;5048032;28;20127;-23
2023/08/07 11:13:55;;;;;;;7.93;1.88;;;16.60;82.30;;;;;;5036387;28;20050;-23
2023/08/07 11:16:21;;;;;;;8.30;2.05;;;16.50;1.00;;;;;;5046734;28;20041;-23
2023/08/07 11:18:49;;;;;;;7.30;2.20;;;16.50;1.00;;;;;;5055878;28;20136;-23
2023/08/07 11:21:14;;;;;;;3.75;1.55;;;16.40;1.00;;;;;;5055819;28;20052;-23
2023/08/07 11:23:41;;;;;;;11.07;1.98;;;16.10;99.90;;;;;;5054235;28;20056;-23
2023/08/07 11:26:09;;;;;;;9.13;2.70;;;15.80;1.00;;;;;;5053239;28;20037;-23
2023/08/07 11:28:34;;;;;;;3.47;1.20;;;15.50;1.00;;;;;;5054419;28;20089;-22
2023/08/07 11:31:01;;;;;;;9.30;2.38;;;14.50;1.00;;;;;;5056471;28;20048;-22
2023/08/07 11:33:28;;;;;;;6.45;1.85;;;13.90;1.00;;;;;;5054301;28;20045;-22
2023/08/07 11:35:54;;;;;;;6.53;1.95;;;13.70;99.90;;;;;;5055766;28;20083;-22
2023/08/07 11:38:30;;;;;;;6.28;1.90;;;13.60;99.90;;;;;;5047248;28;20045;-22
2023/08/07 11:41:04;;;;;;;6.35;2.15;;;13.50;1.00;;;;;;5035201;28;20487;-23
2023/08/07 11:43:31;;;;;;;3.78;1.48;;;13.20;90.60;;;;;;5035515;28;20049;-23
2023/08/07 11:45:58;;;;;;;5.05;1.90;;;13.10;99.90;;;;;;5035845;28;20037;-24
2023/08/07 11:48:29;;;;;;;7.72;1.70;;;13.20;99.90;;;;;;5046593;28;20505;-24
2023/08/07 11:50:56;;;;;;;8.73;2.38;;;13.40;99.90;;;;;;5055803;28;20041;-24
2023/08/07 11:53:24;;;;;;;9.98;2.00;;;13.80;99.90;;;;;;5054876;28;20507;-24
2023/08/07 11:55:58;;;;;;;7.82;2.53;;;14.10;99.90;;;;;;5049893;28;20041;-24
2023/08/07 11:58:32;;;;;;;11.18;2.70;;;14.20;99.90;;;;;;5035620;28;20053;-25
2023/08/07 12:00:58;;;;;;;7.15;2.60;;;14.00;99.90;;;;;;5068145;28;20047;-25
2023/08/07 12:03:28;;;;;;;6.47;2.05;;;13.70;99.90;;;;;;5033884;28;20395;-26
2023/08/07 12:05:56;;;;;;;4.10;1.40;;;13.60;99.90;;;;;;5033779;28;20049;-25
2023/08/07 12:08:22;;;;;;;7.65;1.80;;;13.80;99.90;;;;;;5034959;28;20128;-26
2023/08/07 12:10:54;;;;;;;7.25;1.98;;;14.00;99.90;;;;;;5045106;28;20094;-26
2023/08/07 12:13:25;;;;;;;8.27;2.70;;;14.00;99.90;;;;;;5053837;28;20049;-26
2023/08/07 12:15:53;;;;;;;5.80;1.92;;;14.10;99.90;;;;;;5054618;28;20049;-25
2023/08/07 12:18:23;;;;;;;11.77;2.65;;;14.20;99.90;;;;;;5054699;28;20497;-25
2023/08/07 12:20:51;;;;;;;6.22;1.83;;;14.50;99.90;;;;;;5045439;28;20132;-25
2023/08/07 12:23:18;;;;;;;7.25;2.03;;;14.90;99.90;;;;;;5033729;28;20049;-25
2023/08/07 12:25:44;;;;;;;5.43;1.67;;;15.80;99.90;;;;;;5034846;28;20492;-25
2023/08/07 12:28:11;;;;;;;4.88;1.42;;;16.40;99.90;;;;;;5034555;28;20510;-25
2023/08/07 12:30:37;;;;;;;9.35;2.15;;;16.60;85.60;;;;;;5034800;28;20050;-26
2023/08/07 12:33:07;;;;;;;7.28;1.77;;;16.80;1.00;;;;;;5053444;28;20060;-25
2023/08/07 12:35:34;;;;;;;5.15;1.75;;;17.30;99.90;;;;;;5047325;28;20128;-25
2023/08/07 12:38:02;;;;;;;4.95;1.25;;;17.50;99.90;;;;;;5037416;28;20045;-25
2023/08/07 12:40:27;;;;;;;5.63;1.77;;;17.80;99.90;;;;;;5037019;28;20049;-24
2023/08/07 12:42:53;;;;;;;6.25;2.00;;;17.80;99.90;;;;;;5053318;28;20063;-24